Time;durP1;ratioP1;P1;durP2;ratioP2;P2;SDS_P1;SDS_P2;PMS_P1;PMS_P2;Temp;Humidity;BMP_temperature;BMP_pressure;BME280_temperature;BME280_humidity;BME280_pressure;Samples;Min_cycle;Max_cycle;Signal;HPM_P1;HPM_P2
2022/05/11 00:00:36;;;;;;;10.63;5.68;;;;;;;13.35;88.92;97723.56;5053175;28;20561;-88
2022/05/11 00:03:04;;;;;;;8.80;5.68;;;;;;;13.35;88.94;97723.56;5053642;28;20163;-88
2022/05/11 00:05:29;;;;;;;8.60;5.53;;;;;;;13.16;90.57;97717.78;5037111;28;20017;-88
2022/05/11 00:07:55;;;;;;;9.10;5.10;;;;;;;13.01;92.72;97710.75;5053699;28;20040;-88
2022/05/11 00:10:21;;;;;;;15.60;5.32;;;;;;;12.95;93.35;97711.16;5054184;28;20025;-87
2022/05/11 00:12:47;;;;;;;16.00;6.07;;;;;;;12.87;94.75;97710.81;5053254;28;20507;-87
2022/05/11 00:15:16;;;;;;;9.82;5.45;;;;;;;12.86;95.79;97715.31;5053001;28;20064;-87
2022/05/11 00:17:42;;;;;;;14.48;5.50;;;;;;;12.76;97.15;97716.94;5036526;28;20480;-87
2022/05/11 00:20:09;;;;;;;13.82;5.80;;;;;;;12.67;97.99;97714.88;5053098;28;20112;-87
2022/05/11 00:22:35;;;;;;;8.88;5.60;;;;;;;12.64;98.12;97703.47;5052945;28;20028;-86
2022/05/11 00:25:02;;;;;;;11.38;5.68;;;;;;;12.77;97.24;97720.44;5036606;28;20087;-88
2022/05/11 00:27:27;;;;;;;11.73;5.75;;;;;;;12.74;97.05;97709.94;5053337;28;20052;-89
2022/05/11 00:29:53;;;;;;;11.30;5.82;;;;;;;12.74;97.20;97697.38;5035932;28;20099;-88
2022/05/11 00:32:18;;;;;;;9.38;5.50;;;;;;;12.87;97.71;97700.06;5036139;28;20036;-89
2022/05/11 00:34:44;;;;;;;12.63;5.75;;;;;;;12.88;96.43;97704.50;5053274;28;20039;-88
2022/05/11 00:37:10;;;;;;;12.70;5.28;;;;;;;12.91;95.76;97709.66;5036790;28;20021;-89
2022/05/11 00:39:36;;;;;;;8.95;5.40;;;;;;;12.93;94.03;97705.88;5052791;28;20029;-88
2022/05/11 00:42:03;;;;;;;9.05;4.70;;;;;;;12.98;92.93;97719.00;5052892;28;20051;-89
2022/05/11 00:44:29;;;;;;;14.13;5.32;;;;;;;13.01;93.06;97706.22;5052698;28;20071;-89
2022/05/11 00:46:59;;;;;;;8.48;5.78;;;;;;;13.14;91.83;97708.06;5052466;28;20020;-88
2022/05/11 00:49:56;;;;;;;11.27;5.60;;;;;;;13.20;91.46;97697.78;5053143;28;20032;-88
2022/05/11 00:52:35;;;;;;;11.05;5.97;;;;;;;13.28;90.23;97695.41;5027532;28;20041;-87
2022/05/11 00:55:07;;;;;;;8.38;5.55;;;;;;;13.27;90.22;97692.81;5052529;28;20024;-87
2022/05/11 00:57:37;;;;;;;10.97;5.40;;;;;;;13.28;90.81;97699.94;5052453;28;20029;-88
2022/05/11 01:00:06;;;;;;;10.32;5.53;;;;;;;13.35;89.65;97701.22;5035890;28;20279;-87
2022/05/11 01:02:32;;;;;;;11.50;5.20;;;;;;;13.35;90.05;97696.69;5035240;28;20468;-88
2022/05/11 01:05:01;;;;;;;11.45;5.40;;;;;;;13.39;89.30;97706.25;5051706;28;20035;-88
2022/05/11 01:07:28;;;;;;;14.55;5.40;;;;;;;13.50;88.51;97705.50;5036112;28;20091;-87
2022/05/11 01:09:56;;;;;;;8.77;5.22;;;;;;;13.34;88.24;97691.44;5052288;28;20025;-87
2022/05/11 01:12:25;;;;;;;8.48;4.90;;;;;;;13.35;88.93;97701.22;5037258;28;20025;-88
2022/05/11 01:14:53;;;;;;;13.80;6.07;;;;;;;13.46;89.71;97704.00;5035641;28;20055;-87
2022/05/11 01:17:19;;;;;;;10.88;5.22;;;;;;;13.34;89.95;97710.25;5035617;28;20059;-88
2022/05/11 01:19:46;;;;;;;11.52;6.00;;;;;;;13.37;89.97;97707.34;5035737;28;20037;-87
2022/05/11 01:22:36;;;;;;;10.73;6.40;;;;;;;13.29;90.29;97701.66;5035571;28;20107;-88
2022/05/11 01:25:05;;;;;;;11.48;6.82;;;;;;;13.22;90.65;97695.84;5052022;28;20488;-88
2022/05/11 01:27:39;;;;;;;17.15;7.40;;;;;;;13.18;91.80;97705.09;5051914;28;20016;-88
2022/05/11 01:30:12;;;;;;;19.23;7.72;;;;;;;13.13;92.60;97696.50;5034967;28;20432;-87
2022/05/11 01:32:40;;;;;;;16.85;7.85;;;;;;;13.21;92.33;97693.25;5035056;28;20032;-87
2022/05/11 01:35:14;;;;;;;9.38;6.43;;;;;;;13.23;91.85;97696.69;5051666;28;20033;-88
2022/05/11 01:37:57;;;;;;;13.65;6.70;;;;;;;13.30;91.75;97701.53;5068255;28;20033;-88
2022/05/11 01:40:23;;;;;;;13.00;5.97;;;;;;;13.30;92.04;97696.16;5051360;28;20032;-87
2022/05/11 01:42:49;;;;;;;13.07;5.90;;;;;;;13.32;91.77;97686.16;5034836;28;20082;-87
2022/05/11 01:45:15;;;;;;;9.45;5.40;;;;;;;13.36;91.79;97697.56;5051318;28;20029;-87
2022/05/11 01:47:41;;;;;;;15.85;5.78;;;;;;;13.31;92.24;97697.91;5034626;28;20106;-86
2022/05/11 01:50:07;;;;;;;13.40;5.50;;;;;;;13.29;91.52;97697.13;5034729;28;20098;-87
2022/05/11 01:52:32;;;;;;;9.25;5.57;;;;;;;13.30;91.00;97688.09;5051493;28;20396;-87
2022/05/11 01:54:58;;;;;;;9.32;5.32;;;;;;;13.28;91.68;97692.75;5034527;28;20033;-88
2022/05/11 01:57:24;;;;;;;12.10;6.07;;;;;;;13.29;91.74;97690.91;5051120;28;20032;-89
2022/05/11 01:59:50;;;;;;;16.42;6.43;;;;;;;13.33;91.52;97698.63;5051196;28;20028;-88
2022/05/11 02:02:16;;;;;;;13.35;5.97;;;;;;;13.21;92.02;97687.88;5049894;28;20025;-88
2022/05/11 02:10:09;;;;;;;10.80;6.20;;;;;;;13.26;91.98;97697.34;5054345;28;20031;-90
2022/05/11 02:12:36;;;;;;;13.55;7.00;;;;;;;13.24;91.51;97693.91;5052616;28;20400;-90
2022/05/11 02:15:02;;;;;;;12.93;6.40;;;;;;;13.32;90.98;97696.06;5052439;28;20028;-89
2022/05/11 02:17:28;;;;;;;12.52;5.95;;;;;;;13.16;90.33;97690.03;5052925;28;20036;-89
2022/05/11 02:19:54;;;;;;;13.02;6.43;;;;;;;13.19;90.27;97690.69;5035327;28;20116;-87
2022/05/11 02:22:19;;;;;;;10.52;5.07;;;;;;;13.17;90.52;97700.66;5035528;28;20025;-88
2022/05/11 02:24:45;;;;;;;10.15;5.60;;;;;;;13.20;91.13;97703.13;5052489;28;20078;-88
2022/05/11 02:27:11;;;;;;;21.50;5.75;;;;;;;13.12;93.52;97701.97;5036116;28;20115;-88
2022/05/11 02:29:36;;;;;;;12.52;6.70;;;;;;;13.05;94.89;97701.50;5036277;28;20045;-87
2022/05/11 02:32:05;;;;;;;15.20;6.90;;;;;;;12.96;95.30;97697.63;5052155;28;20120;-88
2022/05/11 02:37:15;;;;;;;16.08;6.22;;;;;;;13.02;94.31;97704.38;5051793;28;20043;-89
2022/05/11 02:39:41;;;;;;;22.50;6.50;;;;;;;13.04;94.68;97719.44;5051465;28;20029;-87
2022/05/11 02:42:07;;;;;;;16.65;6.65;;;;;;;13.00;94.41;97700.97;5051235;28;20114;-88
2022/05/11 02:44:32;;;;;;;9.80;5.97;;;;;;;13.02;93.41;97688.28;5050980;28;20489;-88
2022/05/11 02:46:58;;;;;;;10.15;5.28;;;;;;;13.10;93.12;97704.78;5034676;28;20028;-88
2022/05/11 02:49:24;;;;;;;11.80;5.68;;;;;;;13.13;92.18;97701.88;5035074;28;20083;-88
2022/05/11 02:51:49;;;;;;;11.75;5.57;;;;;;;13.16;89.75;97690.91;5052156;28;20062;-88
2022/05/11 02:54:15;;;;;;;14.52;5.80;;;;;;;13.21;91.30;97696.81;5051820;28;20542;-88
2022/05/11 02:56:41;;;;;;;16.00;6.07;;;;;;;13.25;91.95;97702.84;5037132;28;20024;-88
2022/05/11 02:59:08;;;;;;;15.45;5.55;;;;;;;13.37;91.47;97718.94;5052382;28;20480;-89
2022/05/11 03:01:34;;;;;;;15.23;6.28;;;;;;;13.28;91.75;97705.31;5038257;28;20466;-88
2022/05/11 03:04:00;;;;;;;9.68;5.80;;;;;;;13.21;92.69;97701.31;5054326;28;20029;-89
2022/05/11 03:06:25;;;;;;;10.32;6.10;;;;;;;13.17;91.62;97695.28;5035859;28;20112;-87
2022/05/11 03:08:51;;;;;;;10.90;6.10;;;;;;;13.18;92.41;97696.16;5052176;28;20035;-87
2022/05/11 03:11:17;;;;;;;12.68;7.05;;;;;;;13.17;93.32;97697.97;5035667;28;20480;-87
2022/05/11 03:13:42;;;;;;;10.57;6.90;;;;;;;13.20;93.11;97708.50;5053651;28;20036;-88
2022/05/11 03:16:08;;;;;;;14.07;8.27;;;;;;;13.24;93.26;97719.91;5055411;28;20028;-87
2022/05/11 03:18:34;;;;;;;13.60;7.28;;;;;;;13.23;93.14;97715.50;5039358;28;20033;-88
2022/05/11 03:21:00;;;;;;;14.40;7.80;;;;;;;13.20;94.06;97729.13;5039888;28;20032;-88
2022/05/11 03:23:27;;;;;;;21.20;7.78;;;;;;;13.12;94.52;97726.13;5038942;28;20484;-88
2022/05/11 03:25:53;;;;;;;22.00;7.15;;;;;;;13.12;95.14;97710.88;5055644;28;20495;-88
2022/05/11 03:28:19;;;;;;;19.55;7.40;;;;;;;13.22;94.71;97722.72;5055923;28;20037;-88
2022/05/11 03:30:45;;;;;;;19.33;8.07;;;;;;;13.24;93.61;97711.84;5055650;28;20055;-90
2022/05/11 03:35:54;;;;;;;20.98;9.80;;;;;;;13.28;93.17;97722.28;5056460;28;20436;-90
2022/05/11 03:38:20;;;;;;;28.40;9.90;;;;;;;13.32;92.97;97723.78;5053635;28;20033;-80
2022/05/11 03:40:45;;;;;;;22.90;8.43;;;;;;;13.30;92.22;97723.03;5035840;28;20098;-82
2022/05/11 03:43:11;;;;;;;17.40;9.05;;;;;;;13.33;92.60;97736.25;5052795;28;20128;-81
2022/05/11 03:45:37;;;;;;;19.42;9.18;;;;;;;13.19;93.50;97730.13;5036522;28;20025;-80
2022/05/11 03:48:03;;;;;;;13.38;8.25;;;;;;;13.21;94.45;97737.09;5052665;28;20040;-80
2022/05/11 03:50:28;;;;;;;15.43;8.55;;;;;;;13.28;94.31;97733.03;5052035;28;20088;-80
2022/05/11 03:52:55;;;;;;;21.35;9.00;;;;;;;13.37;94.03;97743.13;5052450;28;20040;-80
2022/05/11 03:55:22;;;;;;;20.23;9.50;;;;;;;13.36;95.01;97748.59;5068858;28;20032;-80
2022/05/11 03:57:47;;;;;;;22.15;8.60;;;;;;;13.22;96.12;97749.59;5053361;28;20119;-82
2022/05/11 04:00:21;;;;;;;41.78;9.70;;;;;;;13.32;96.70;97757.88;5054008;28;20130;-81
2022/05/11 04:02:51;;;;;;;28.75;9.20;;;;;;;13.28;97.67;97761.72;5036529;28;20044;-81
2022/05/11 04:05:17;;;;;;;14.27;8.73;;;;;;;13.29;98.14;97772.34;5052754;28;20407;-80
2022/05/11 04:07:43;;;;;;;23.00;8.30;;;;;;;13.30;96.88;97765.16;5036583;28;20550;-80
2022/05/11 04:10:11;;;;;;;20.73;7.18;;;;;;;13.32;98.08;97777.50;5052857;28;20128;-78
2022/05/11 04:12:37;;;;;;;15.15;7.38;;;;;;;13.37;97.83;97780.75;5034795;28;20029;-78
2022/05/11 04:15:03;;;;;;;18.55;6.93;;;;;;;13.52;95.43;97781.50;5035121;28;20412;-78
2022/05/11 04:17:29;;;;;;;18.23;7.38;;;;;;;13.61;93.62;97774.63;5034571;28;20037;-78
2022/05/11 04:19:56;;;;;;;18.05;6.90;;;;;;;13.69;93.26;97785.72;5035165;28;20148;-82
2022/05/11 04:22:21;;;;;;;12.27;7.57;;;;;;;13.75;92.78;97786.09;5035600;28;20029;-82
2022/05/11 04:24:47;;;;;;;17.20;6.97;;;;;;;13.78;91.87;97785.88;5031257;28;20116;-83
2022/05/11 04:27:13;;;;;;;10.40;5.85;;;;;;;13.77;91.25;97794.09;5032356;28;20033;-79
2022/05/11 04:29:40;;;;;;;10.35;6.40;;;;;;;13.73;91.80;97787.19;5032338;28;20175;-86
2022/05/11 04:32:07;;;;;;;13.63;6.70;;;;;;;13.77;90.68;97789.56;5032868;28;20040;-85
2022/05/11 04:34:33;;;;;;;16.08;7.53;;;;;;;14.01;89.04;97786.94;5013753;28;20139;-78
2022/05/11 04:36:58;;;;;;;13.23;6.90;;;;;;;14.25;87.13;97790.56;5030226;28;20037;-80
2022/05/11 04:39:24;;;;;;;18.05;6.95;;;;;;;14.50;85.05;97792.34;5033026;28;20033;-83
2022/05/11 04:41:50;;;;;;;11.63;6.93;;;;;;;14.56;82.38;97789.19;5028700;28;20153;-80
2022/05/11 04:44:16;;;;;;;11.95;6.93;;;;;;;14.74;81.48;97792.34;5014489;28;20029;-79
2022/05/11 04:46:42;;;;;;;19.10;8.90;;;;;;;14.67;83.57;97800.03;5030832;28;20556;-79
2022/05/11 04:49:16;;;;;;;22.95;8.27;;;;;;;14.96;82.52;97795.16;5013038;28;20164;-79
2022/05/11 04:51:42;;;;;;;20.02;10.88;;;;;;;15.27;80.50;97796.38;5024547;28;20033;-79
2022/05/11 04:54:08;;;;;;;19.45;7.78;;;;;;;15.41;78.10;97797.00;5030495;28;20036;-79
2022/05/11 04:56:34;;;;;;;15.20;7.18;;;;;;;15.48;76.24;97794.75;5030685;28;20225;-79
2022/05/11 04:59:00;;;;;;;13.50;7.22;;;;;;;15.39;76.32;97792.72;5029757;28;20044;-79
2022/05/11 05:01:26;;;;;;;38.25;10.90;;;;;;;15.52;75.71;97796.22;5022138;28;20026;-79
2022/05/11 05:03:52;;;;;;;16.95;8.05;;;;;;;15.58;75.21;97791.22;5031444;28;20122;-79
2022/05/11 05:06:17;;;;;;;19.23;7.30;;;;;;;15.51;73.07;97802.59;5031170;28;20519;-79
2022/05/11 05:08:43;;;;;;;14.95;7.90;;;;;;;15.59;73.67;97814.53;5014233;28;20022;-79
2022/05/11 05:11:09;;;;;;;20.50;9.30;;;;;;;15.58;77.15;97811.94;5030023;28;20105;-79
2022/05/11 05:13:35;;;;;;;24.00;9.75;;;;;;;15.61;77.86;97809.84;5029853;28;20025;-79
2022/05/11 05:16:00;;;;;;;20.65;10.15;;;;;;;15.69;79.09;97807.41;5030866;28;20029;-79
2022/05/11 05:18:26;;;;;;;26.13;10.00;;;;;;;15.50;80.92;97823.31;5029903;28;20444;-79
2022/05/11 05:20:53;;;;;;;34.08;10.05;;;;;;;16.24;78.29;97816.53;5029650;28;20467;-79
2022/05/11 05:23:18;;;;;;;28.88;11.73;;;;;;;18.22;70.92;97833.94;5031109;28;20022;-79
2022/05/11 05:25:44;;;;;;;18.70;8.50;;;;;;;20.50;59.86;97822.53;5030461;28;20083;-79
2022/05/11 05:31:05;;;;;;;19.73;6.28;;;;;;;23.09;47.47;97799.13;5030514;28;20119;-80
2022/05/11 05:33:32;;;;;;;35.30;11.23;;;;;;;23.45;45.58;97801.59;5015749;28;20455;-80
2022/05/11 05:35:58;;;;;;;12.45;6.78;;;;;;;24.28;43.64;97805.88;5029766;28;20029;-80
2022/05/11 05:38:23;;;;;;;14.20;6.65;;;;;;;22.49;46.61;97820.16;5029198;28;20099;-80
2022/05/11 05:40:49;;;;;;;11.07;6.40;;;;;;;21.03;50.11;97828.97;5013422;28;20447;-79
2022/05/11 05:43:15;;;;;;;15.85;6.95;;;;;;;21.00;50.45;97832.00;5030003;28;20037;-80
2022/05/11 05:45:49;;;;;;;17.80;7.32;;;;;;;20.39;52.61;97839.91;5014004;28;20021;-80
2022/05/11 05:48:15;;;;;;;19.67;7.07;;;;;;;19.38;54.80;97847.69;5029666;28;20052;-79
2022/05/11 05:50:40;;;;;;;21.05;8.00;;;;;;;19.23;55.87;97843.69;5029997;28;20493;-79
2022/05/11 05:53:06;;;;;;;23.83;7.82;;;;;;;19.13;56.69;97852.81;5029903;28;20075;-79
2022/05/11 05:55:31;;;;;;;15.27;7.50;;;;;;;19.07;57.00;97861.53;5013127;28;20065;-79
2022/05/11 05:57:59;;;;;;;26.45;7.10;;;;;;;19.02;57.33;97861.06;5029683;28;20032;-79
2022/05/11 06:00:25;;;;;;;18.15;5.80;;;;;;;19.48;55.37;97855.88;5030063;28;20096;-79
2022/05/11 06:02:51;;;;;;;13.23;6.38;;;;;;;20.32;53.02;97856.94;5029567;28;20057;-79
2022/05/11 06:05:16;;;;;;;19.88;7.45;;;;;;;20.00;53.46;97860.81;5013286;28;20513;-80
2022/05/11 06:07:42;;;;;;;16.05;6.80;;;;;;;19.76;54.51;97855.00;5029954;28;20029;-80
2022/05/11 06:10:08;;;;;;;13.85;6.70;;;;;;;19.94;53.76;97850.53;5014121;28;20033;-79
2022/05/11 06:12:33;;;;;;;16.83;7.05;;;;;;;20.65;52.03;97860.94;5028264;28;20026;-79
2022/05/11 06:14:59;;;;;;;19.50;6.50;;;;;;;20.99;50.38;97854.75;5024718;28;20029;-79
2022/05/11 06:17:24;;;;;;;18.30;6.50;;;;;;;22.55;46.92;97852.25;5029637;28;20069;-79
2022/05/11 06:19:52;;;;;;;15.18;5.45;;;;;;;24.92;41.54;97834.91;5013157;28;20104;-80
2022/05/11 06:22:18;;;;;;;13.40;4.55;;;;;;;27.39;38.14;97827.56;5029495;28;20134;-80
2022/05/11 06:24:44;;;;;;;10.30;4.82;;;;;;;28.92;33.63;97803.94;5029458;28;20471;-80
2022/05/11 06:27:15;;;;;;;7.82;5.32;;;;;;;29.89;31.88;97808.16;5029468;28;20034;-80
2022/05/11 06:29:41;;;;;;;11.93;4.97;;;;;;;29.97;31.90;97807.09;5029267;28;20053;-81
2022/05/11 06:32:07;;;;;;;18.25;5.55;;;;;;;29.49;31.99;97806.34;5029460;28;20272;-79
2022/05/11 06:34:33;;;;;;;13.15;4.60;;;;;;;29.72;32.21;97814.28;5028971;28;20029;-80
2022/05/11 06:36:59;;;;;;;17.42;5.82;;;;;;;30.49;31.34;97815.41;5030745;28;20079;-80
2022/05/11 06:39:24;;;;;;;11.18;5.40;;;;;;;28.55;33.81;97829.16;5029436;28;20541;-80
2022/05/11 06:41:50;;;;;;;11.05;5.28;;;;;;;27.87;35.54;97838.91;5030337;28;20033;-80
2022/05/11 06:44:16;;;;;;;13.50;5.15;;;;;;;28.46;34.76;97834.78;5031638;28;20033;-81
2022/05/11 06:46:41;;;;;;;13.63;5.40;;;;;;;28.44;34.66;97828.63;5031141;28;20030;-81
2022/05/11 06:49:07;;;;;;;7.40;4.60;;;;;;;28.49;34.74;97828.03;5016928;28;20025;-80
2022/05/11 06:51:32;;;;;;;8.32;4.88;;;;;;;28.54;34.94;97828.28;5020022;28;20536;-80
2022/05/11 06:59:33;;;;;;;11.18;5.22;;;;;;;27.99;35.31;97823.56;5036607;28;20046;-80
2022/05/11 07:02:02;;;;;;;15.85;5.00;;;;;;;28.64;34.72;97828.75;5035780;28;20409;-81
2022/05/11 07:04:28;;;;;;;9.63;5.00;;;;;;;28.83;34.32;97827.22;5021939;28;20033;-80
2022/05/11 07:06:57;;;;;;;13.65;5.18;;;;;;;28.75;33.98;97808.97;5034602;28;20026;-80
2022/05/11 07:09:24;;;;;;;21.33;5.93;;;;;;;29.53;33.21;97811.22;5034740;28;20093;-80
2022/05/11 07:14:35;;;;;;;7.60;5.10;;;;;;;30.22;31.54;97804.56;5034351;28;20044;-80
2022/05/11 07:17:01;;;;;;;14.23;5.32;;;;;;;30.14;31.73;97790.97;5034310;28;20025;-80
2022/05/11 07:19:27;;;;;;;12.38;5.40;;;;;;;30.86;30.93;97788.97;5034840;28;20038;-80
2022/05/11 07:21:53;;;;;;;10.93;5.00;;;;;;;32.39;29.29;97786.03;5034450;28;20029;-81
2022/05/11 07:24:19;;;;;;;8.80;4.35;;;;;;;33.02;28.13;97775.56;5034393;28;20086;-81
2022/05/11 07:26:45;;;;;;;12.05;4.20;;;;;;;33.12;27.49;97780.59;5034643;28;20413;-81
2022/05/11 07:29:12;;;;;;;11.60;5.07;;;;;;;32.55;28.38;97790.97;5030566;28;20045;-81
2022/05/11 07:31:38;;;;;;;10.38;4.07;;;;;;;31.18;29.79;97770.63;5031199;28;20068;-80
2022/05/11 07:34:04;;;;;;;6.95;4.35;;;;;;;30.70;30.53;97780.34;5017345;28;20041;-80
2022/05/11 07:36:29;;;;;;;8.18;4.07;;;;;;;31.25;28.55;97765.06;5033694;28;20381;-80
2022/05/11 07:38:55;;;;;;;11.00;4.97;;;;;;;32.24;27.89;97777.19;5033720;28;20055;-80
2022/05/11 07:41:21;;;;;;;10.73;4.20;;;;;;;32.69;27.18;97769.56;5033265;28;20029;-80
2022/05/11 07:43:47;;;;;;;9.27;3.67;;;;;;;32.35;26.21;97765.41;5016325;28;20040;-80
2022/05/11 07:46:13;;;;;;;7.72;3.80;;;;;;;33.62;25.40;97762.69;5033214;28;20454;-80
2022/05/11 07:48:38;;;;;;;11.00;3.63;;;;;;;33.48;25.20;97751.94;5032689;28;20032;-80
2022/05/11 07:51:04;;;;;;;10.60;3.75;;;;;;;32.16;27.40;97763.66;5016326;28;20025;-80
2022/05/11 07:53:33;;;;;;;5.95;4.13;;;;;;;32.99;26.53;97769.63;5016975;28;20032;-82
2022/05/11 08:01:31;;;;;;;8.55;4.18;;;;;;;33.31;26.67;97759.25;5032287;28;20487;-81
2022/05/11 08:04:00;;;;;;;11.52;4.57;;;;;;;35.33;24.82;97762.44;5032816;28;20029;-81
2022/05/11 08:06:26;;;;;;;8.55;4.57;;;;;;;33.35;26.47;97758.53;5032973;28;20032;-80
2022/05/11 08:08:51;;;;;;;16.75;4.55;;;;;;;31.88;28.41;97761.28;5033869;28;20104;-80
2022/05/11 08:11:17;;;;;;;14.18;4.15;;;;;;;32.47;28.43;97765.47;5032057;28;20044;-80
2022/05/11 08:13:42;;;;;;;10.32;6.60;;;;;;;33.18;28.12;97763.03;5031756;28;20462;-80
2022/05/11 08:16:08;;;;;;;7.43;5.57;;;;;;;33.42;28.07;97767.63;5015646;28;20033;-80
2022/05/11 08:18:34;;;;;;;6.78;4.93;;;;;;;34.28;26.87;97770.81;5032469;28;20543;-80
2022/05/11 08:21:00;;;;;;;12.40;5.47;;;;;;;34.84;26.10;97753.56;5014856;28;20071;-79
2022/05/11 08:23:28;;;;;;;5.40;4.18;;;;;;;33.23;28.30;97760.41;5031037;28;20033;-79
2022/05/11 08:25:57;;;;;;;5.30;3.90;;;;;;;32.05;29.97;97767.16;5031207;28;20076;-79
2022/05/11 08:28:24;;;;;;;10.98;4.30;;;;;;;33.57;28.26;97767.19;4999219;28;20488;-79
2022/05/11 08:33:38;;;;;;;6.07;4.10;;;;;;;33.65;27.04;97753.88;5031520;28;20032;-79
2022/05/11 08:36:10;;;;;;;4.85;3.97;;;;;;;34.27;26.75;97758.00;5023292;28;20477;-79
2022/05/11 08:38:38;;;;;;;8.68;3.90;;;;;;;35.62;25.61;97761.41;5014730;28;20408;-80
2022/05/11 08:41:06;;;;;;;3.80;3.35;;;;;;;34.63;26.77;97765.31;5030971;28;20034;-80
2022/05/11 08:43:34;;;;;;;5.95;4.05;;;;;;;35.61;25.21;97756.06;5032228;28;20041;-80
2022/05/11 08:46:30;;;;;;;7.20;3.80;;;;;;;35.15;25.50;97759.81;5014294;28;20061;-80
2022/05/11 08:49:05;;;;;;;5.65;3.88;;;;;;;36.00;24.84;97752.31;5030875;28;20044;-80
2022/05/11 08:51:41;;;;;;;8.75;3.45;;;;;;;37.14;23.84;97762.00;5031181;28;20056;-80
2022/05/11 08:54:14;;;;;;;6.18;3.60;;;;;;;37.44;23.27;97754.03;5013964;28;20037;-80
2022/05/11 08:56:43;;;;;;;17.70;4.50;;;;;;;37.69;23.74;97755.41;5030898;28;20029;-80
2022/05/11 08:59:16;;;;;;;11.65;3.95;;;;;;;35.25;25.69;97748.91;5030488;28;20032;-80
2022/05/11 09:01:48;;;;;;;9.73;3.70;;;;;;;33.12;28.55;97764.81;5030349;28;20044;-79
2022/05/11 09:04:19;;;;;;;6.65;4.25;;;;;;;31.93;30.12;97763.38;5013773;28;20064;-79
2022/05/11 09:06:45;;;;;;;8.98;4.32;;;;;;;31.34;31.49;97775.66;5030851;28;20021;-80
2022/05/11 09:09:12;;;;;;;8.63;3.95;;;;;;;30.37;32.43;97772.06;5030406;28;20032;-80
2022/05/11 09:11:48;;;;;;;12.35;4.30;;;;;;;30.87;31.78;97773.25;5030555;28;20040;-80
2022/05/11 09:14:29;;;;;;;14.20;3.72;;;;;;;29.71;32.89;97772.03;5030857;28;20389;-81
2022/05/11 09:16:54;;;;;;;11.82;5.03;;;;;;;28.19;35.25;97780.59;5028319;28;20025;-81
2022/05/11 09:19:26;;;;;;;9.63;4.63;;;;;;;27.80;36.26;97774.72;5030085;28;20021;-81
2022/05/11 09:21:55;;;;;;;5.88;3.75;;;;;;;29.84;32.66;97782.28;5030335;28;20022;-81
2022/05/11 09:24:30;;;;;;;4.78;3.55;;;;;;;31.40;30.22;97765.63;5013617;28;20052;-81
2022/05/11 09:27:07;;;;;;;6.05;3.60;;;;;;;31.30;30.67;97755.03;5013777;28;20034;-79
2022/05/11 09:29:44;;;;;;;5.32;3.33;;;;;;;31.93;29.40;97758.69;5029969;28;20017;-80
2022/05/11 09:32:29;;;;;;;5.75;3.60;;;;;;;30.47;32.02;97762.31;5014006;28;20040;-80
2022/05/11 09:34:56;;;;;;;9.73;4.03;;;;;;;29.05;34.12;97770.97;5025880;28;20029;-80
2022/05/11 09:37:36;;;;;;;12.60;4.50;;;;;;;28.39;35.50;97776.06;5029876;28;20031;-81
2022/05/11 09:40:20;;;;;;;7.90;4.70;;;;;;;27.54;36.06;97779.94;5029884;28;20075;-80
2022/05/11 09:42:53;;;;;;;9.38;3.47;;;;;;;29.41;33.00;97763.25;5030478;28;20025;-80
2022/05/11 09:45:44;;;;;;;9.55;4.13;;;;;;;31.69;30.83;97765.03;5025537;28;20025;-81
2022/05/11 09:48:21;;;;;;;7.05;3.40;;;;;;;34.00;27.51;97755.88;5030359;28;20056;-79
2022/05/11 09:50:55;;;;;;;11.60;3.58;;;;;;;33.13;28.07;97743.50;5029931;28;20026;-80
2022/05/11 09:53:24;;;;;;;9.48;4.43;;;;;;;30.49;31.92;97753.78;5029757;28;20048;-80
2022/05/11 09:55:50;;;;;;;7.88;4.00;;;;;;;30.02;32.41;97757.66;5025840;28;20429;-80
2022/05/11 09:58:28;;;;;;;7.80;4.18;;;;;;;28.73;34.50;97766.16;5029610;28;20394;-80
2022/05/11 10:01:07;;;;;;;8.57;4.53;;;;;;;28.23;35.16;97765.41;5030274;28;20035;-80
2022/05/11 10:03:33;;;;;;;5.88;3.65;;;;;;;27.86;35.58;97769.28;5029528;28;20025;-81
2022/05/11 10:05:58;;;;;;;7.00;3.85;;;;;;;29.44;33.90;97765.59;5029979;28;20108;-80
2022/05/11 10:08:27;;;;;;;14.38;3.55;;;;;;;29.11;33.73;97763.78;5029655;28;20033;-82
2022/05/11 10:10:56;;;;;;;5.15;3.72;;;;;;;29.31;33.54;97764.72;5030071;28;20068;-82
2022/05/11 10:13:29;;;;;;;32.50;4.90;;;;;;;29.69;33.53;97773.28;5030118;28;20108;-81
2022/05/11 10:21:58;;;;;;;11.68;4.40;;;;;;;30.93;31.25;97756.66;5031500;28;20033;-80
2022/05/11 10:24:26;;;;;;;6.18;3.10;;;;;;;31.97;29.01;97748.00;5029868;28;20099;-81
2022/05/11 10:27:01;;;;;;;3.80;3.35;;;;;;;32.22;29.05;97743.34;5034144;28;20030;-80
2022/05/11 10:29:39;;;;;;;11.55;3.85;;;;;;;34.66;26.71;97734.25;5033733;28;20036;-80
2022/05/11 10:32:22;;;;;;;11.50;3.78;;;;;;;35.13;26.52;97728.63;5033901;28;20026;-80
2022/05/11 10:35:09;;;;;;;11.57;3.72;;;;;;;35.10;26.74;97741.06;5034002;28;20040;-80
2022/05/11 10:38:01;;;;;;;7.72;3.65;;;;;;;33.24;28.61;97742.69;5016604;28;20160;-79
2022/05/11 10:40:42;;;;;;;6.93;3.67;;;;;;;30.08;32.02;97751.28;5034293;28;20108;-78
2022/05/11 10:43:23;;;;;;;5.65;3.88;;;;;;;28.57;35.13;97761.81;5033358;28;20033;-79
2022/05/11 10:46:18;;;;;;;9.73;4.00;;;;;;;28.37;35.18;97763.56;5033041;28;20071;-79
2022/05/11 10:49:08;;;;;;;9.10;4.68;;;;;;;27.19;36.89;97770.69;5008505;28;20041;-79
2022/05/11 10:52:15;;;;;;;11.68;5.38;;;;;;;27.83;36.56;97772.44;5034211;28;20111;-78
2022/05/11 10:54:59;;;;;;;6.82;3.75;;;;;;;29.75;32.73;97762.25;5013526;28;20485;-80
2022/05/11 10:57:52;;;;;;;7.53;3.47;;;;;;;33.11;28.90;97734.53;5033098;28;20034;-81
2022/05/11 11:00:22;;;;;;;6.95;3.17;;;;;;;35.25;26.22;97726.66;5032995;28;20091;-81
2022/05/11 11:03:09;;;;;;;7.47;3.50;;;;;;;36.09;25.33;97730.50;5032982;28;20400;-82
2022/05/11 11:05:47;;;;;;;6.57;2.90;;;;;;;34.17;26.85;97724.44;5034329;28;20035;-82
2022/05/11 11:08:18;;;;;;;6.35;3.60;;;;;;;33.58;27.82;97724.50;5032920;28;20544;-80
2022/05/11 11:11:08;;;;;;;4.60;3.20;;;;;;;32.13;28.87;97726.19;5032612;28;20060;-80
2022/05/11 11:13:43;;;;;;;13.98;3.45;;;;;;;30.54;31.38;97723.63;5034213;28;20029;-78
2022/05/11 11:16:10;;;;;;;8.18;3.45;;;;;;;30.92;31.09;97710.72;5027630;28;20574;-80
2022/05/11 11:18:40;;;;;;;7.80;3.42;;;;;;;32.75;29.10;97718.75;5032817;28;20037;-80
2022/05/11 11:21:08;;;;;;;8.65;3.42;;;;;;;32.50;28.53;97704.94;5032270;28;20025;-81
2022/05/11 11:23:43;;;;;;;11.45;3.42;;;;;;;33.89;28.54;97721.47;5016042;28;20045;-81
2022/05/11 11:26:27;;;;;;;5.97;3.53;;;;;;;35.67;25.28;97705.78;5032704;28;20893;-81
2022/05/11 11:28:56;;;;;;;8.77;4.03;;;;;;;34.72;25.93;97708.25;5031998;28;20021;-81
2022/05/11 11:31:24;;;;;;;7.57;3.60;;;;;;;35.30;26.53;97713.69;5032030;28;20471;-81
2022/05/11 11:33:53;;;;;;;5.80;3.67;;;;;;;32.76;27.95;97702.97;5031946;28;20033;-81
2022/05/11 11:36:33;;;;;;;4.80;3.28;;;;;;;34.09;26.49;97705.31;5032377;28;20053;-80
2022/05/11 11:39:00;;;;;;;6.38;3.10;;;;;;;34.93;25.95;97697.56;5032178;28;20029;-81
2022/05/11 11:41:30;;;;;;;6.20;3.88;;;;;;;34.64;25.98;97708.63;5015541;28;20033;-81
2022/05/11 11:44:00;;;;;;;26.13;5.03;;;;;;;34.40;25.80;97704.13;5029549;28;20434;-81
2022/05/11 11:46:32;;;;;;;15.60;4.07;;;;;;;33.83;25.98;97700.22;5015562;28;20423;-81
2022/05/11 11:49:06;;;;;;;7.22;3.30;;;;;;;33.43;26.52;97699.09;5031622;28;20030;-81
2022/05/11 11:51:56;;;;;;;4.75;3.03;;;;;;;30.77;29.21;97695.50;5031899;28;20029;-81
2022/05/11 11:54:37;;;;;;;7.88;3.28;;;;;;;29.83;31.06;97712.44;5020732;28;20042;-81
2022/05/11 11:57:26;;;;;;;7.35;3.45;;;;;;;29.44;32.49;97709.63;5031595;28;20396;-80
2022/05/11 11:59:58;;;;;;;5.72;3.30;;;;;;;29.62;31.80;97706.25;5031183;28;20073;-80
2022/05/11 12:02:37;;;;;;;9.23;4.50;;;;;;;29.58;31.39;97692.88;5032007;28;20480;-80
2022/05/11 12:05:25;;;;;;;5.28;3.00;;;;;;;30.89;29.78;97680.78;5031640;28;20562;-81
2022/05/11 12:16:53;;;;;;;9.05;4.97;;;;;;;28.91;32.86;97686.56;5031662;28;20044;-81
2022/05/11 12:19:21;;;;;;;4.90;3.85;;;;;;;30.46;30.62;97677.75;5031378;28;20551;-81
2022/05/11 12:22:03;;;;;;;8.63;3.08;;;;;;;30.08;30.46;97668.50;5031033;28;20065;-81